Circle Line Queens — WDE8154 — position and weather

sailwx.info

Track history (hours):
 
Tides and Currents Weather Stations Pressure Air Temp Water Temp Dewpoint Dewpoint Depression Visibility Wind Speed Wind Dir Waves Ship Positions

Circle Line Queens

Owner: Circle Line Sight Seeing Yachts Inc., New York, NY. More information available from US FCC via Universal Licensing System and Coast Guard Vessel Documentation Center.

Last reported at 2018-Apr-25 19:00 UTC. Time now 2018-Apr-26 00:20 UTC.
Position N 40°43' W 074°01'.

Length 47 m; draft 2.1 m.

Type: Passenger vessel. MMSI: 367402210.

Date/timePositionNaut miles runAvg speedWind from/ knotsBaromVisibWave heightAir tempDewpointWater temp
2018-Apr-25 19:00N 40°43' W 074°01'3 5.4
2018-Apr-25 18:30N 40°45' W 073°58'5 9.5
2018-Apr-25 18:01N 40°41' W 074°02'3 1.1
2018-Apr-25 14:55N 40°43' W 073°58'4 8.6
2018-Apr-25 14:30N 40°41' W 074°02'5 0.3
2018-Apr-25 00:48N 40°46' W 074°00'310.6
2018-Apr-25 00:30N 40°43' W 074°01'3 4.3
2018-Apr-24 23:56N 40°43' W 073°58'3 7.6
2018-Apr-24 23:30N 40°42' W 074°02'4 1.9
2018-Apr-24 21:20N 40°46' W 074°00'0 0.0
2018-Apr-24 20:50N 40°46' W 074°00'0 0.0
2018-Apr-24 19:45N 40°46' W 074°00'2 1.5
2018-Apr-24 18:23N 40°45' W 073°58'513.9
2018-Apr-24 18:00N 40°41' W 074°02'6 1.9
2018-Apr-24 15:06N 40°45' W 073°57'213.1
2018-Apr-24 14:56N 40°43' W 073°58'4 8.5
2018-Apr-24 14:30N 40°42' W 074°02'2 0.1
2018-Apr-24 00:36N 40°43' W 074°01'111.2
2018-Apr-24 00:30N 40°42' W 074°01'3 5.1
2018-Apr-23 23:58N 40°44' W 073°58'4 8.3
2018-Apr-23 23:30N 40°42' W 074°02'4 1.2
2018-Apr-23 19:49N 40°46' W 074°00'2 1.6
2018-Apr-23 18:26N 40°45' W 073°57'613.4
2018-Apr-23 18:00N 40°41' W 074°03'5 3.8
2018-Apr-23 16:41N 40°46' W 074°00'3 1.9
2018-Apr-23 14:54N 40°43' W 073°58'3 8.2
2018-Apr-23 14:30N 40°42' W 074°02'4 0.2
2018-Apr-22 19:50N 40°46' W 074°00'2 1.6
2018-Apr-22 18:26N 40°45' W 073°57'613.4
2018-Apr-22 18:00N 40°41' W 074°03'5 2.8
2018-Apr-22 16:15N 40°46' W 074°00'2 1.8
2018-Apr-22 14:55N 40°45' W 073°57'613.6
2018-Apr-22 14:30N 40°41' W 074°02'5 0.4
2018-Apr-22 02:06N 40°46' W 074°00'0 2.9
2018-Apr-22 01:59N 40°46' W 074°01'4 7.6
2018-Apr-22 01:30N 40°42' W 074°00'2 4.7
2018-Apr-22 01:00N 40°43' W 073°58'3 5.8
2018-Apr-22 00:31N 40°43' W 074°02'3 6.5
2018-Apr-22 00:00N 40°46' W 074°00'0 0.0
2018-Apr-21 23:30N 40°46' W 074°00'0 0.0
2018-Apr-21 19:31N 40°46' W 074°00'0 0.0
2018-Apr-21 19:30N 40°46' W 074°00'510.1
2018-Apr-21 19:01N 40°41' W 074°03'5 9.7
2018-Apr-21 18:30N 40°46' W 074°00'0 0.0
2018-Apr-21 18:00N 40°46' W 074°00'0 0.0
2018-Apr-21 17:30N 40°46' W 074°00'0 0.0
2018-Apr-21 17:00N 40°46' W 074°00'0 0.0
2018-Apr-21 16:30N 40°46' W 074°00'0 0.0
2018-Apr-21 16:00N 40°46' W 074°00'0 0.0
2018-Apr-21 15:30N 40°46' W 074°00'510.1
2018-Apr-21 15:00N 40°41' W 074°03'5 9.8
2018-Apr-21 14:30N 40°46' W 074°00'0 0.0
2018-Apr-21 00:52N 40°46' W 074°00'410.4
2018-Apr-21 00:30N 40°42' W 074°01'3 5.5
2018-Apr-21 00:00N 40°43' W 073°58'3 6.9
2018-Apr-20 23:31N 40°42' W 074°02'4 8.5
2018-Apr-20 23:00N 40°46' W 074°00'0 0.0
2018-Apr-20 22:30N 40°46' W 074°00'0 0.0
2018-Apr-20 22:00N 40°46' W 074°00'0 0.0
2018-Apr-20 21:30N 40°46' W 074°00'0 0.0
2018-Apr-20 21:01N 40°46' W 074°00'0 0.0
2018-Apr-20 20:30N 40°46' W 074°00'0 0.0
2018-Apr-20 19:59N 40°46' W 074°00'5 9.8
2018-Apr-20 19:29N 40°50' W 073°57'5 5.1
2018-Apr-20 18:30N 40°45' W 073°57'511.2
2018-Apr-20 18:00N 40°41' W 074°02'5 9.4
2018-Apr-20 17:30N 40°46' W 074°00'0 0.0
2018-Apr-20 17:00N 40°46' W 074°00'0 0.5
2018-Apr-20 16:30N 40°46' W 074°00'510.7
2018-Apr-20 16:00N 40°51' W 073°57'5 5.0
2018-Apr-20 15:00N 40°46' W 073°57'612.7
2018-Apr-20 14:30N 40°41' W 074°03'5 9.9
2018-Apr-20 14:00N 40°46' W 074°00'0 0.0
2018-Apr-20 13:28N 40°46' W 074°00'0 0.0
2018-Apr-20 12:59N 40°46' W 074°00'0 0.0
2018-Apr-20 00:48N 40°46' W 074°00'311.2
2018-Apr-20 00:30N 40°43' W 074°01'3 6.1
2018-Apr-20 00:00N 40°44' W 073°58'4 8.3
2018-Apr-19 23:29N 40°41' W 074°02'5 9.6
2018-Apr-19 22:59N 40°46' W 074°00'0 0.0
2018-Apr-19 22:30N 40°46' W 074°00'0 0.0
2018-Apr-19 22:00N 40°46' W 074°00'0 0.0
2018-Apr-19 21:30N 40°46' W 074°00'0 0.0
2018-Apr-19 21:00N 40°46' W 074°00'4 8.0
2018-Apr-19 20:31N 40°42' W 074°01'1 2.3
2018-Apr-19 20:00N 40°41' W 074°02'5 9.3
2018-Apr-19 19:30N 40°46' W 074°00'0 0.0
2018-Apr-19 19:00N 40°46' W 074°00'0 0.0
2018-Apr-19 18:30N 40°46' W 074°00'0 0.0
2018-Apr-19 18:00N 40°46' W 074°00'4 7.3
2018-Apr-19 17:30N 40°42' W 074°00'2 4.1
2018-Apr-19 17:00N 40°41' W 074°03'5 9.8
2018-Apr-19 16:30N 40°46' W 074°00'0 0.0
2018-Apr-19 16:00N 40°46' W 074°00'0 0.0
2018-Apr-19 15:30N 40°46' W 074°00'0 0.0
2018-Apr-19 14:59N 40°46' W 074°00'0 0.0
2018-Apr-19 14:30N 40°46' W 074°00'0 0.2
2018-Apr-19 14:00N 40°46' W 074°00'0 0.0
2018-Apr-18 19:59N 40°46' W 074°00'2 1.6
2018-Apr-18 18:35N 40°46' W 073°57'111.4
2018-Apr-18 18:30N 40°45' W 073°58'510.8
2018-Apr-18 18:01N 40°41' W 074°03'5 9.8
2018-Apr-18 17:30N 40°46' W 074°00'0 0.0
2018-Apr-18 17:00N 40°46' W 074°00'0 0.1
2018-Apr-18 16:30N 40°46' W 074°00'612.9
2018-Apr-18 16:00N 40°52' W 073°57'4 5.2
2018-Apr-18 15:17N 40°48' W 073°56'413.1
2018-Apr-18 14:59N 40°44' W 073°58'4 8.5
2018-Apr-18 14:31N 40°42' W 074°02'4 8.2
2018-Apr-18 14:00N 40°46' W 074°00'0 0.0
2018-Apr-18 13:30N 40°46' W 074°00'0 0.0
2018-Apr-17 19:44N 40°46' W 074°00'1 5.5
2018-Apr-17 19:29N 40°45' W 074°01'3 7.1
2018-Apr-17 19:00N 40°41' W 074°02'5 9.5
2018-Apr-17 18:30N 40°46' W 074°00'0 0.0
2018-Apr-17 18:00N 40°46' W 074°00'0 0.0
2018-Apr-17 17:30N 40°46' W 074°00'0 0.0
2018-Apr-17 17:00N 40°46' W 074°00'0 0.0
2018-Apr-17 16:30N 40°46' W 074°00'0 0.0
2018-Apr-17 15:30N 40°46' W 074°00'5 9.7
2018-Apr-17 15:00N 40°41' W 074°02'5 9.6
2018-Apr-17 14:30N 40°46' W 074°00'0 0.0
2018-Apr-17 14:00N 40°46' W 074°00'0 0.0
2018-Apr-17 13:30N 40°46' W 074°00'0 0.0
2018-Apr-16 19:54N 40°46' W 074°00'3 8.1
2018-Apr-16 19:31N 40°49' W 073°58'3 2.9
2018-Apr-16 18:37N 40°47' W 073°56'111.4
2018-Apr-16 18:30N 40°46' W 073°57'611.4
2018-Apr-16 18:00N 40°41' W 074°02'5 9.3
2018-Apr-16 17:30N 40°46' W 074°00'0 0.0
2018-Apr-16 17:00N 40°46' W 074°00'0 0.4
2018-Apr-16 16:30N 40°46' W 074°00'3 5.2
2018-Apr-16 16:00N 40°43' W 074°01'3 4.4
2018-Apr-16 15:14N 40°45' W 073°58'313.6
2018-Apr-16 15:00N 40°42' W 073°59'2 4.7
2018-Apr-16 14:30N 40°44' W 074°01'2 4.2
2018-Apr-16 14:00N 40°46' W 074°00'0 0.0
2018-Apr-16 13:30N 40°46' W 074°00'0 0.0
2018-Apr-16 12:59N 40°46' W 074°00'0 0.0
2018-Apr-15 19:49N 40°46' W 074°00'515.2
2018-Apr-15 19:29N 40°50' W 073°57'  
Track history (hours):
 
Tides and Currents Weather Stations Pressure Air Temp Water Temp Dewpoint Dewpoint Depression Visibility Wind Speed Wind Dir Waves Ship Positions

Circle Line Queens

Owner: Circle Line Sight Seeing Yachts Inc., New York, NY. More information available from US FCC via Universal Licensing System and Coast Guard Vessel Documentation Center.

Last reported at 2018-Apr-25 19:00 UTC. Time now 2018-Apr-26 00:20 UTC.
Position N 40°43' W 074°01'.

Length 47 m; draft 2.1 m.

Type: Passenger vessel. MMSI: 367402210.

Date/timePositionNaut miles runAvg speedWind from/ knotsBaromVisibWave heightAir tempDewpointWater temp
2018-Apr-25 19:00N 40°43' W 074°01'3 5.4
2018-Apr-25 18:30N 40°45' W 073°58'5 9.5
2018-Apr-25 18:01N 40°41' W 074°02'3 1.1
2018-Apr-25 14:55N 40°43' W 073°58'4 8.6
2018-Apr-25 14:30N 40°41' W 074°02'5 0.3
2018-Apr-25 00:48N 40°46' W 074°00'310.6
2018-Apr-25 00:30N 40°43' W 074°01'3 4.3
2018-Apr-24 23:56N 40°43' W 073°58'3 7.6
2018-Apr-24 23:30N 40°42' W 074°02'4 1.9
2018-Apr-24 21:20N 40°46' W 074°00'0 0.0
2018-Apr-24 20:50N 40°46' W 074°00'0 0.0
2018-Apr-24 19:45N 40°46' W 074°00'2 1.5
2018-Apr-24 18:23N 40°45' W 073°58'513.9
2018-Apr-24 18:00N 40°41' W 074°02'6 1.9
2018-Apr-24 15:06N 40°45' W 073°57'213.1
2018-Apr-24 14:56N 40°43' W 073°58'4 8.5
2018-Apr-24 14:30N 40°42' W 074°02'2 0.1
2018-Apr-24 00:36N 40°43' W 074°01'111.2
2018-Apr-24 00:30N 40°42' W 074°01'3 5.1
2018-Apr-23 23:58N 40°44' W 073°58'4 8.3
2018-Apr-23 23:30N 40°42' W 074°02'4 1.2
2018-Apr-23 19:49N 40°46' W 074°00'2 1.6
2018-Apr-23 18:26N 40°45' W 073°57'613.4
2018-Apr-23 18:00N 40°41' W 074°03'5 3.8
2018-Apr-23 16:41N 40°46' W 074°00'3 1.9
2018-Apr-23 14:54N 40°43' W 073°58'3 8.2
2018-Apr-23 14:30N 40°42' W 074°02'4 0.2
2018-Apr-22 19:50N 40°46' W 074°00'2 1.6
2018-Apr-22 18:26N 40°45' W 073°57'613.4
2018-Apr-22 18:00N 40°41' W 074°03'5 2.8
2018-Apr-22 16:15N 40°46' W 074°00'2 1.8
2018-Apr-22 14:55N 40°45' W 073°57'613.6
2018-Apr-22 14:30N 40°41' W 074°02'5 0.4
2018-Apr-22 02:06N 40°46' W 074°00'0 2.9
2018-Apr-22 01:59N 40°46' W 074°01'4 7.6
2018-Apr-22 01:30N 40°42' W 074°00'2 4.7
2018-Apr-22 01:00N 40°43' W 073°58'3 5.8
2018-Apr-22 00:31N 40°43' W 074°02'3 6.5
2018-Apr-22 00:00N 40°46' W 074°00'0 0.0
2018-Apr-21 23:30N 40°46' W 074°00'0 0.0
2018-Apr-21 19:31N 40°46' W 074°00'0 0.0
2018-Apr-21 19:30N 40°46' W 074°00'510.1
2018-Apr-21 19:01N 40°41' W 074°03'5 9.7
2018-Apr-21 18:30N 40°46' W 074°00'0 0.0
2018-Apr-21 18:00N 40°46' W 074°00'0 0.0
2018-Apr-21 17:30N 40°46' W 074°00'0 0.0
2018-Apr-21 17:00N 40°46' W 074°00'0 0.0
2018-Apr-21 16:30N 40°46' W 074°00'0 0.0
2018-Apr-21 16:00N 40°46' W 074°00'0 0.0
2018-Apr-21 15:30N 40°46' W 074°00'510.1
2018-Apr-21 15:00N 40°41' W 074°03'5 9.8
2018-Apr-21 14:30N 40°46' W 074°00'0 0.0
2018-Apr-21 00:52N 40°46' W 074°00'410.4
2018-Apr-21 00:30N 40°42' W 074°01'3 5.5
2018-Apr-21 00:00N 40°43' W 073°58'3 6.9
2018-Apr-20 23:31N 40°42' W 074°02'4 8.5
2018-Apr-20 23:00N 40°46' W 074°00'0 0.0
2018-Apr-20 22:30N 40°46' W 074°00'0 0.0
2018-Apr-20 22:00N 40°46' W 074°00'0 0.0
2018-Apr-20 21:30N 40°46' W 074°00'0 0.0
2018-Apr-20 21:01N 40°46' W 074°00'0 0.0
2018-Apr-20 20:30N 40°46' W 074°00'0 0.0
2018-Apr-20 19:59N 40°46' W 074°00'5 9.8
2018-Apr-20 19:29N 40°50' W 073°57'5 5.1
2018-Apr-20 18:30N 40°45' W 073°57'511.2
2018-Apr-20 18:00N 40°41' W 074°02'5 9.4
2018-Apr-20 17:30N 40°46' W 074°00'0 0.0
2018-Apr-20 17:00N 40°46' W 074°00'0 0.5
2018-Apr-20 16:30N 40°46' W 074°00'510.7
2018-Apr-20 16:00N 40°51' W 073°57'5 5.0
2018-Apr-20 15:00N 40°46' W 073°57'612.7
2018-Apr-20 14:30N 40°41' W 074°03'5 9.9
2018-Apr-20 14:00N 40°46' W 074°00'0 0.0
2018-Apr-20 13:28N 40°46' W 074°00'0 0.0
2018-Apr-20 12:59N 40°46' W 074°00'0 0.0
2018-Apr-20 00:48N 40°46' W 074°00'311.2
2018-Apr-20 00:30N 40°43' W 074°01'3 6.1
2018-Apr-20 00:00N 40°44' W 073°58'4 8.3
2018-Apr-19 23:29N 40°41' W 074°02'5 9.6
2018-Apr-19 22:59N 40°46' W 074°00'0 0.0
2018-Apr-19 22:30N 40°46' W 074°00'0 0.0
2018-Apr-19 22:00N 40°46' W 074°00'0 0.0
2018-Apr-19 21:30N 40°46' W 074°00'0 0.0
2018-Apr-19 21:00N 40°46' W 074°00'4 8.0
2018-Apr-19 20:31N 40°42' W 074°01'1 2.3
2018-Apr-19 20:00N 40°41' W 074°02'5 9.3
2018-Apr-19 19:30N 40°46' W 074°00'0 0.0
2018-Apr-19 19:00N 40°46' W 074°00'0 0.0
2018-Apr-19 18:30N 40°46' W 074°00'0 0.0
2018-Apr-19 18:00N 40°46' W 074°00'4 7.3
2018-Apr-19 17:30N 40°42' W 074°00'2 4.1
2018-Apr-19 17:00N 40°41' W 074°03'5 9.8
2018-Apr-19 16:30N 40°46' W 074°00'0 0.0
2018-Apr-19 16:00N 40°46' W 074°00'0 0.0
2018-Apr-19 15:30N 40°46' W 074°00'0 0.0
2018-Apr-19 14:59N 40°46' W 074°00'0 0.0
2018-Apr-19 14:30N 40°46' W 074°00'0 0.2
2018-Apr-19 14:00N 40°46' W 074°00'0 0.0
2018-Apr-18 19:59N 40°46' W 074°00'2 1.6
2018-Apr-18 18:35N 40°46' W 073°57'111.4
2018-Apr-18 18:30N 40°45' W 073°58'510.8
2018-Apr-18 18:01N 40°41' W 074°03'5 9.8
2018-Apr-18 17:30N 40°46' W 074°00'0 0.0
2018-Apr-18 17:00N 40°46' W 074°00'0 0.1
2018-Apr-18 16:30N 40°46' W 074°00'612.9
2018-Apr-18 16:00N 40°52' W 073°57'4 5.2
2018-Apr-18 15:17N 40°48' W 073°56'413.1
2018-Apr-18 14:59N 40°44' W 073°58'4 8.5
2018-Apr-18 14:31N 40°42' W 074°02'4 8.2
2018-Apr-18 14:00N 40°46' W 074°00'0 0.0
2018-Apr-18 13:30N 40°46' W 074°00'0 0.0
2018-Apr-17 19:44N 40°46' W 074°00'1 5.5
2018-Apr-17 19:29N 40°45' W 074°01'3 7.1
2018-Apr-17 19:00N 40°41' W 074°02'5 9.5
2018-Apr-17 18:30N 40°46' W 074°00'0 0.0
2018-Apr-17 18:00N 40°46' W 074°00'0 0.0
2018-Apr-17 17:30N 40°46' W 074°00'0 0.0
2018-Apr-17 17:00N 40°46' W 074°00'0 0.0
2018-Apr-17 16:30N 40°46' W 074°00'0 0.0
2018-Apr-17 15:30N 40°46' W 074°00'5 9.7
2018-Apr-17 15:00N 40°41' W 074°02'5 9.6
2018-Apr-17 14:30N 40°46' W 074°00'0 0.0
2018-Apr-17 14:00N 40°46' W 074°00'0 0.0
2018-Apr-17 13:30N 40°46' W 074°00'0 0.0
2018-Apr-16 19:54N 40°46' W 074°00'3 8.1
2018-Apr-16 19:31N 40°49' W 073°58'3 2.9
2018-Apr-16 18:37N 40°47' W 073°56'111.4
2018-Apr-16 18:30N 40°46' W 073°57'611.4
2018-Apr-16 18:00N 40°41' W 074°02'5 9.3
2018-Apr-16 17:30N 40°46' W 074°00'0 0.0
2018-Apr-16 17:00N 40°46' W 074°00'0 0.4
2018-Apr-16 16:30N 40°46' W 074°00'3 5.2
2018-Apr-16 16:00N 40°43' W 074°01'3 4.4
2018-Apr-16 15:14N 40°45' W 073°58'313.6
2018-Apr-16 15:00N 40°42' W 073°59'2 4.7
2018-Apr-16 14:30N 40°44' W 074°01'2 4.2
2018-Apr-16 14:00N 40°46' W 074°00'0 0.0
2018-Apr-16 13:30N 40°46' W 074°00'0 0.0
2018-Apr-16 12:59N 40°46' W 074°00'0 0.0
2018-Apr-15 19:49N 40°46' W 074°00'515.2
2018-Apr-15 19:29N 40°50' W 073°57'  

Dump ship's entire track history